Webcam Flughafen St.Gallen-Altenrhein

Live-Bilder und Zeitraffer LSZR / ACH.

 

Live aus Altenrhein
LIVE
LSZR 182120Z AUTO VRB02KT CAVOK 00/M02 Q1020
Zeitraffer heute
2019-02-18 00:14:55
LSZR 172250Z AUTO 22002KT CAVOK M02/M03 Q1024
Zeitraffer gestern
2019-02-17 00:14:44
LSZR 162250Z AUTO 21002KT CAVOK M01/M02 Q1028
Zeitraffer vor 3 Tagen
2019-02-15 00:14:51
LSZR 142250Z AUTO 12003KT CAVOK M01/M01 Q1034